sensor_id;sensor_type;location;lat;lon;timestamp;P1;durP1;ratioP1;P2;durP2;ratioP2
64966;SDS011;51710;38.732;-121.358;2023-04-06T00:02:17;2.05;;;0.75;;
64966;SDS011;51710;38.732;-121.358;2023-04-06T00:04:43;0.60;;;0.60;;
64966;SDS011;51710;38.732;-121.358;2023-04-06T00:07:10;1.30;;;0.60;;
64966;SDS011;51710;38.732;-121.358;2023-04-06T00:09:36;3.47;;;0.63;;
64966;SDS011;51710;38.732;-121.358;2023-04-06T00:12:02;1.83;;;0.70;;
64966;SDS011;51710;38.732;-121.358;2023-04-06T00:14:28;2.17;;;0.90;;
64966;SDS011;51710;38.732;-121.358;2023-04-06T00:16:55;1.60;;;0.80;;
64966;SDS011;51710;38.732;-121.358;2023-04-06T00:19:21;3.47;;;0.93;;
64966;SDS011;51710;38.732;-121.358;2023-04-06T00:21:47;1.30;;;0.70;;
64966;SDS011;51710;38.732;-121.358;2023-04-06T00:24:14;1.67;;;0.70;;
64966;SDS011;51710;38.732;-121.358;2023-04-06T00:26:40;2.30;;;0.80;;
64966;SDS011;51710;38.732;-121.358;2023-04-06T00:29:06;3.83;;;0.88;;
64966;SDS011;51710;38.732;-121.358;2023-04-06T00:31:32;1.90;;;0.70;;
64966;SDS011;51710;38.732;-121.358;2023-04-06T00:33:59;2.08;;;0.60;;
64966;SDS011;51710;38.732;-121.358;2023-04-06T00:36:25;1.27;;;0.70;;
64966;SDS011;51710;38.732;-121.358;2023-04-06T00:38:52;1.38;;;0.77;;
64966;SDS011;51710;38.732;-121.358;2023-04-06T00:41:18;2.28;;;0.80;;
64966;SDS011;51710;38.732;-121.358;2023-04-06T00:43:46;1.48;;;0.65;;
64966;SDS011;51710;38.732;-121.358;2023-04-06T00:46:12;2.20;;;0.63;;
64966;SDS011;51710;38.732;-121.358;2023-04-06T00:48:38;1.85;;;0.65;;
64966;SDS011;51710;38.732;-121.358;2023-04-06T00:51:06;1.75;;;1.20;;
64966;SDS011;51710;38.732;-121.358;2023-04-06T00:53:32;4.63;;;0.82;;
64966;SDS011;51710;38.732;-121.358;2023-04-06T00:55:58;1.95;;;0.80;;
64966;SDS011;51710;38.732;-121.358;2023-04-06T00:58:24;2.38;;;0.70;;
64966;SDS011;51710;38.732;-121.358;2023-04-06T01:00:51;1.92;;;0.60;;
64966;SDS011;51710;38.732;-121.358;2023-04-06T01:03:17;2.90;;;0.75;;
64966;SDS011;51710;38.732;-121.358;2023-04-06T01:05:43;1.50;;;0.63;;
64966;SDS011;51710;38.732;-121.358;2023-04-06T01:08:10;2.28;;;0.80;;
64966;SDS011;51710;38.732;-121.358;2023-04-06T01:10:36;1.88;;;0.80;;
64966;SDS011;51710;38.732;-121.358;2023-04-06T01:13:02;2.47;;;1.00;;
64966;SDS011;51710;38.732;-121.358;2023-04-06T01:15:29;2.05;;;0.70;;
64966;SDS011;51710;38.732;-121.358;2023-04-06T01:17:55;1.60;;;0.63;;
64966;SDS011;51710;38.732;-121.358;2023-04-06T01:20:21;1.73;;;0.80;;
64966;SDS011;51710;38.732;-121.358;2023-04-06T01:22:48;1.63;;;0.80;;
64966;SDS011;51710;38.732;-121.358;2023-04-06T01:25:14;1.67;;;0.85;;
64966;SDS011;51710;38.732;-121.358;2023-04-06T01:27:40;1.30;;;0.57;;
64966;SDS011;51710;38.732;-121.358;2023-04-06T01:30:07;2.42;;;0.70;;
64966;SDS011;51710;38.732;-121.358;2023-04-06T01:32:33;1.45;;;0.77;;
64966;SDS011;51710;38.732;-121.358;2023-04-06T01:34:59;3.72;;;0.60;;
64966;SDS011;51710;38.732;-121.358;2023-04-06T01:37:26;2.05;;;0.90;;
64966;SDS011;51710;38.732;-121.358;2023-04-06T01:39:52;5.63;;;0.90;;
64966;SDS011;51710;38.732;-121.358;2023-04-06T01:42:18;1.38;;;0.50;;
64966;SDS011;51710;38.732;-121.358;2023-04-06T01:44:45;3.20;;;0.82;;
64966;SDS011;51710;38.732;-121.358;2023-04-06T01:47:11;0.57;;;0.50;;
64966;SDS011;51710;38.732;-121.358;2023-04-06T01:49:37;2.28;;;0.90;;
64966;SDS011;51710;38.732;-121.358;2023-04-06T01:52:03;1.27;;;0.80;;
64966;SDS011;51710;38.732;-121.358;2023-04-06T01:54:30;0.77;;;0.50;;
64966;SDS011;51710;38.732;-121.358;2023-04-06T01:56:56;1.88;;;0.70;;
64966;SDS011;51710;38.732;-121.358;2023-04-06T01:59:22;1.40;;;0.60;;
64966;SDS011;51710;38.732;-121.358;2023-04-06T02:01:49;1.40;;;0.70;;
64966;SDS011;51710;38.732;-121.358;2023-04-06T02:04:15;1.65;;;0.70;;
64966;SDS011;51710;38.732;-121.358;2023-04-06T02:06:41;1.27;;;0.65;;
64966;SDS011;51710;38.732;-121.358;2023-04-06T02:09:07;2.60;;;0.85;;
64966;SDS011;51710;38.732;-121.358;2023-04-06T02:11:34;2.38;;;0.82;;
64966;SDS011;51710;38.732;-121.358;2023-04-06T02:14:00;2.50;;;0.82;;
64966;SDS011;51710;38.732;-121.358;2023-04-06T02:16:27;5.68;;;1.20;;
64966;SDS011;51710;38.732;-121.358;2023-04-06T02:18:53;3.88;;;0.98;;
64966;SDS011;51710;38.732;-121.358;2023-04-06T02:21:19;3.33;;;0.60;;
64966;SDS011;51710;38.732;-121.358;2023-04-06T02:23:46;1.70;;;0.60;;
64966;SDS011;51710;38.732;-121.358;2023-04-06T02:26:13;1.50;;;0.70;;
64966;SDS011;51710;38.732;-121.358;2023-04-06T02:28:40;2.28;;;1.00;;
64966;SDS011;51710;38.732;-121.358;2023-04-06T02:31:07;1.73;;;0.75;;
64966;SDS011;51710;38.732;-121.358;2023-04-06T02:33:34;2.42;;;0.60;;
64966;SDS011;51710;38.732;-121.358;2023-04-06T02:36:00;1.65;;;0.60;;
64966;SDS011;51710;38.732;-121.358;2023-04-06T02:38:26;0.85;;;0.60;;
64966;SDS011;51710;38.732;-121.358;2023-04-06T02:40:52;1.98;;;0.80;;
64966;SDS011;51710;38.732;-121.358;2023-04-06T02:43:19;2.20;;;0.80;;
64966;SDS011;51710;38.732;-121.358;2023-04-06T02:45:45;1.33;;;0.63;;
64966;SDS011;51710;38.732;-121.358;2023-04-06T02:48:12;1.52;;;0.70;;
64966;SDS011;51710;38.732;-121.358;2023-04-06T02:50:38;1.73;;;0.80;;
64966;SDS011;51710;38.732;-121.358;2023-04-06T02:53:04;0.65;;;0.55;;
64966;SDS011;51710;38.732;-121.358;2023-04-06T02:55:31;1.83;;;0.93;;
64966;SDS011;51710;38.732;-121.358;2023-04-06T02:57:57;2.22;;;0.70;;
64966;SDS011;51710;38.732;-121.358;2023-04-06T03:00:23;2.92;;;0.70;;
64966;SDS011;51710;38.732;-121.358;2023-04-06T03:02:49;4.53;;;0.90;;
64966;SDS011;51710;38.732;-121.358;2023-04-06T03:05:16;1.00;;;0.68;;
64966;SDS011;51710;38.732;-121.358;2023-04-06T03:07:42;1.77;;;0.77;;
64966;SDS011;51710;38.732;-121.358;2023-04-06T03:10:08;2.00;;;0.82;;
64966;SDS011;51710;38.732;-121.358;2023-04-06T03:12:35;1.00;;;0.70;;
64966;SDS011;51710;38.732;-121.358;2023-04-06T03:15:01;1.20;;;0.75;;
64966;SDS011;51710;38.732;-121.358;2023-04-06T03:17:28;1.90;;;0.80;;
64966;SDS011;51710;38.732;-121.358;2023-04-06T03:19:54;0.95;;;0.70;;
64966;SDS011;51710;38.732;-121.358;2023-04-06T03:22:21;3.42;;;1.10;;
64966;SDS011;51710;38.732;-121.358;2023-04-06T03:24:47;2.88;;;0.90;;
64966;SDS011;51710;38.732;-121.358;2023-04-06T03:27:13;1.92;;;0.70;;
64966;SDS011;51710;38.732;-121.358;2023-04-06T03:29:39;2.90;;;0.95;;
64966;SDS011;51710;38.732;-121.358;2023-04-06T03:32:06;2.13;;;0.90;;
64966;SDS011;51710;38.732;-121.358;2023-04-06T03:34:32;3.25;;;1.27;;
64966;SDS011;51710;38.732;-121.358;2023-04-06T03:36:58;3.80;;;2.20;;
64966;SDS011;51710;38.732;-121.358;2023-04-06T03:39:24;3.53;;;1.58;;
64966;SDS011;51710;38.732;-121.358;2023-04-06T03:41:53;3.03;;;1.08;;
64966;SDS011;51710;38.732;-121.358;2023-04-06T03:44:20;3.42;;;1.25;;
64966;SDS011;51710;38.732;-121.358;2023-04-06T03:46:46;2.40;;;1.00;;
64966;SDS011;51710;38.732;-121.358;2023-04-06T03:49:12;1.02;;;0.82;;
64966;SDS011;51710;38.732;-121.358;2023-04-06T03:51:38;2.20;;;0.95;;
64966;SDS011;51710;38.732;-121.358;2023-04-06T03:54:05;2.88;;;1.10;;
64966;SDS011;51710;38.732;-121.358;2023-04-06T03:56:34;7.63;;;0.93;;
64966;SDS011;51710;38.732;-121.358;2023-04-06T03:59:00;0.98;;;0.80;;
64966;SDS011;51710;38.732;-121.358;2023-04-06T04:01:27;1.35;;;0.98;;
64966;SDS011;51710;38.732;-121.358;2023-04-06T04:03:54;1.20;;;0.77;;
64966;SDS011;51710;38.732;-121.358;2023-04-06T04:06:20;1.90;;;0.80;;
64966;SDS011;51710;38.732;-121.358;2023-04-06T04:08:46;4.00;;;0.95;;
64966;SDS011;51710;38.732;-121.358;2023-04-06T04:11:12;1.60;;;0.95;;
64966;SDS011;51710;38.732;-121.358;2023-04-06T04:13:40;3.00;;;0.77;;
64966;SDS011;51710;38.732;-121.358;2023-04-06T04:16:07;3.25;;;0.75;;
64966;SDS011;51710;38.732;-121.358;2023-04-06T04:18:33;1.48;;;0.93;;
64966;SDS011;51710;38.732;-121.358;2023-04-06T04:20:59;2.03;;;0.80;;
64966;SDS011;51710;38.732;-121.358;2023-04-06T04:23:25;1.50;;;0.68;;
64966;SDS011;51710;38.732;-121.358;2023-04-06T04:25:52;7.15;;;3.38;;
64966;SDS011;51710;38.732;-121.358;2023-04-06T04:28:18;15.82;;;6.45;;
64966;SDS011;51710;38.732;-121.358;2023-04-06T04:30:45;7.60;;;3.60;;
64966;SDS011;51710;38.732;-121.358;2023-04-06T04:33:12;7.82;;;3.13;;
64966;SDS011;51710;38.732;-121.358;2023-04-06T04:35:38;18.55;;;8.13;;
64966;SDS011;51710;38.732;-121.358;2023-04-06T04:38:04;16.63;;;7.78;;
64966;SDS011;51710;38.732;-121.358;2023-04-06T04:40:30;13.60;;;5.78;;
64966;SDS011;51710;38.732;-121.358;2023-04-06T04:42:56;64.20;;;25.38;;
64966;SDS011;51710;38.732;-121.358;2023-04-06T04:45:23;20.48;;;8.88;;
64966;SDS011;51710;38.732;-121.358;2023-04-06T04:47:49;11.45;;;5.60;;
64966;SDS011;51710;38.732;-121.358;2023-04-06T04:50:15;5.85;;;2.58;;
64966;SDS011;51710;38.732;-121.358;2023-04-06T04:52:42;4.72;;;1.85;;
64966;SDS011;51710;38.732;-121.358;2023-04-06T04:55:08;3.45;;;1.67;;
64966;SDS011;51710;38.732;-121.358;2023-04-06T04:57:34;3.97;;;1.55;;
64966;SDS011;51710;38.732;-121.358;2023-04-06T05:00:00;3.33;;;1.80;;
64966;SDS011;51710;38.732;-121.358;2023-04-06T05:02:27;4.28;;;2.28;;
64966;SDS011;51710;38.732;-121.358;2023-04-06T05:04:53;5.18;;;2.05;;
64966;SDS011;51710;38.732;-121.358;2023-04-06T05:07:20;4.68;;;2.00;;
64966;SDS011;51710;38.732;-121.358;2023-04-06T05:09:46;4.88;;;2.10;;
64966;SDS011;51710;38.732;-121.358;2023-04-06T05:12:13;5.18;;;2.75;;
64966;SDS011;51710;38.732;-121.358;2023-04-06T05:14:39;5.53;;;2.28;;
64966;SDS011;51710;38.732;-121.358;2023-04-06T05:17:05;5.18;;;1.90;;
64966;SDS011;51710;38.732;-121.358;2023-04-06T05:19:32;6.40;;;2.42;;
64966;SDS011;51710;38.732;-121.358;2023-04-06T05:21:58;3.70;;;1.85;;
64966;SDS011;51710;38.732;-121.358;2023-04-06T05:24:24;5.95;;;2.45;;
64966;SDS011;51710;38.732;-121.358;2023-04-06T05:26:51;5.60;;;2.60;;
64966;SDS011;51710;38.732;-121.358;2023-04-06T05:29:17;5.18;;;2.40;;
64966;SDS011;51710;38.732;-121.358;2023-04-06T05:31:45;7.85;;;2.67;;
64966;SDS011;51710;38.732;-121.358;2023-04-06T05:34:12;8.27;;;2.88;;
64966;SDS011;51710;38.732;-121.358;2023-04-06T05:36:38;8.23;;;2.95;;
64966;SDS011;51710;38.732;-121.358;2023-04-06T05:39:05;6.03;;;3.08;;
64966;SDS011;51710;38.732;-121.358;2023-04-06T05:41:32;12.77;;;3.92;;
64966;SDS011;51710;38.732;-121.358;2023-04-06T05:43:58;6.72;;;3.63;;
64966;SDS011;51710;38.732;-121.358;2023-04-06T05:46:25;5.65;;;2.83;;
64966;SDS011;51710;38.732;-121.358;2023-04-06T05:48:51;9.00;;;3.40;;
64966;SDS011;51710;38.732;-121.358;2023-04-06T05:51:17;6.60;;;2.75;;
64966;SDS011;51710;38.732;-121.358;2023-04-06T05:53:44;6.50;;;3.45;;
64966;SDS011;51710;38.732;-121.358;2023-04-06T05:56:10;7.47;;;3.60;;
64966;SDS011;51710;38.732;-121.358;2023-04-06T05:58:36;6.07;;;3.55;;
64966;SDS011;51710;38.732;-121.358;2023-04-06T06:01:02;7.45;;;2.95;;
64966;SDS011;51710;38.732;-121.358;2023-04-06T06:03:30;6.80;;;3.17;;
64966;SDS011;51710;38.732;-121.358;2023-04-06T06:06:00;5.75;;;2.58;;
64966;SDS011;51710;38.732;-121.358;2023-04-06T06:08:28;4.32;;;2.45;;
64966;SDS011;51710;38.732;-121.358;2023-04-06T06:10:54;6.18;;;2.72;;
64966;SDS011;51710;38.732;-121.358;2023-04-06T06:13:21;8.93;;;3.42;;
64966;SDS011;51710;38.732;-121.358;2023-04-06T06:15:48;8.82;;;3.00;;
64966;SDS011;51710;38.732;-121.358;2023-04-06T06:18:15;5.45;;;2.97;;
64966;SDS011;51710;38.732;-121.358;2023-04-06T06:20:41;7.40;;;3.08;;
64966;SDS011;51710;38.732;-121.358;2023-04-06T06:23:07;5.38;;;2.80;;
64966;SDS011;51710;38.732;-121.358;2023-04-06T06:25:33;9.30;;;3.38;;
64966;SDS011;51710;38.732;-121.358;2023-04-06T06:28:00;9.88;;;3.15;;
64966;SDS011;51710;38.732;-121.358;2023-04-06T06:30:26;6.78;;;3.65;;
64966;SDS011;51710;38.732;-121.358;2023-04-06T06:32:52;7.60;;;3.08;;
64966;SDS011;51710;38.732;-121.358;2023-04-06T06:35:18;7.13;;;3.65;;
64966;SDS011;51710;38.732;-121.358;2023-04-06T06:37:45;7.60;;;3.13;;
64966;SDS011;51710;38.732;-121.358;2023-04-06T06:40:11;9.38;;;3.65;;
64966;SDS011;51710;38.732;-121.358;2023-04-06T06:42:42;6.80;;;3.47;;
64966;SDS011;51710;38.732;-121.358;2023-04-06T06:45:08;7.70;;;3.55;;
64966;SDS011;51710;38.732;-121.358;2023-04-06T06:47:35;7.85;;;3.38;;
64966;SDS011;51710;38.732;-121.358;2023-04-06T06:50:01;7.07;;;3.30;;
64966;SDS011;51710;38.732;-121.358;2023-04-06T06:52:28;7.88;;;3.67;;
64966;SDS011;51710;38.732;-121.358;2023-04-06T06:54:54;9.02;;;3.60;;
64966;SDS011;51710;38.732;-121.358;2023-04-06T06:57:21;9.20;;;3.90;;
64966;SDS011;51710;38.732;-121.358;2023-04-06T06:59:48;6.88;;;3.90;;
64966;SDS011;51710;38.732;-121.358;2023-04-06T07:02:14;7.03;;;3.53;;
64966;SDS011;51710;38.732;-121.358;2023-04-06T07:04:40;8.23;;;4.13;;
64966;SDS011;51710;38.732;-121.358;2023-04-06T07:07:06;8.07;;;3.60;;
64966;SDS011;51710;38.732;-121.358;2023-04-06T07:09:33;7.82;;;3.25;;
64966;SDS011;51710;38.732;-121.358;2023-04-06T07:12:00;6.97;;;3.40;;
64966;SDS011;51710;38.732;-121.358;2023-04-06T07:14:27;8.77;;;3.63;;
64966;SDS011;51710;38.732;-121.358;2023-04-06T07:16:53;6.80;;;3.63;;
64966;SDS011;51710;38.732;-121.358;2023-04-06T07:19:19;7.38;;;3.08;;
64966;SDS011;51710;38.732;-121.358;2023-04-06T07:21:45;6.70;;;3.00;;
64966;SDS011;51710;38.732;-121.358;2023-04-06T07:24:12;7.80;;;3.63;;
64966;SDS011;51710;38.732;-121.358;2023-04-06T07:26:38;8.70;;;3.90;;
64966;SDS011;51710;38.732;-121.358;2023-04-06T07:29:04;6.13;;;2.58;;
64966;SDS011;51710;38.732;-121.358;2023-04-06T07:31:31;6.35;;;3.35;;
64966;SDS011;51710;38.732;-121.358;2023-04-06T07:33:57;7.90;;;3.08;;
64966;SDS011;51710;38.732;-121.358;2023-04-06T07:36:23;6.88;;;2.92;;
64966;SDS011;51710;38.732;-121.358;2023-04-06T07:38:50;8.07;;;3.05;;
64966;SDS011;51710;38.732;-121.358;2023-04-06T07:41:16;9.82;;;3.17;;
64966;SDS011;51710;38.732;-121.358;2023-04-06T07:43:42;8.90;;;2.97;;
64966;SDS011;51710;38.732;-121.358;2023-04-06T07:46:08;7.15;;;2.75;;
64966;SDS011;51710;38.732;-121.358;2023-04-06T07:48:35;8.90;;;3.15;;
64966;SDS011;51710;38.732;-121.358;2023-04-06T07:51:03;7.28;;;2.60;;
64966;SDS011;51710;38.732;-121.358;2023-04-06T07:53:30;7.60;;;2.88;;
64966;SDS011;51710;38.732;-121.358;2023-04-06T07:55:58;6.80;;;2.80;;
64966;SDS011;51710;38.732;-121.358;2023-04-06T07:58:24;7.82;;;3.13;;
64966;SDS011;51710;38.732;-121.358;2023-04-06T08:00:51;6.60;;;3.17;;
64966;SDS011;51710;38.732;-121.358;2023-04-06T08:03:17;6.20;;;2.55;;
64966;SDS011;51710;38.732;-121.358;2023-04-06T08:05:46;10.18;;;2.75;;
64966;SDS011;51710;38.732;-121.358;2023-04-06T08:08:12;6.18;;;2.50;;
64966;SDS011;51710;38.732;-121.358;2023-04-06T08:10:38;9.95;;;3.40;;
64966;SDS011;51710;38.732;-121.358;2023-04-06T08:13:04;6.07;;;2.50;;
64966;SDS011;51710;38.732;-121.358;2023-04-06T08:15:31;5.30;;;2.42;;
64966;SDS011;51710;38.732;-121.358;2023-04-06T08:17:57;7.75;;;2.63;;
64966;SDS011;51710;38.732;-121.358;2023-04-06T08:20:23;8.48;;;2.63;;
64966;SDS011;51710;38.732;-121.358;2023-04-06T08:22:49;6.53;;;2.58;;
64966;SDS011;51710;38.732;-121.358;2023-04-06T08:25:16;7.35;;;3.03;;
64966;SDS011;51710;38.732;-121.358;2023-04-06T08:27:42;6.38;;;2.50;;
64966;SDS011;51710;38.732;-121.358;2023-04-06T08:30:08;6.50;;;3.17;;
64966;SDS011;51710;38.732;-121.358;2023-04-06T08:32:35;7.45;;;2.85;;
64966;SDS011;51710;38.732;-121.358;2023-04-06T08:35:01;4.95;;;2.45;;
64966;SDS011;51710;38.732;-121.358;2023-04-06T08:37:28;6.00;;;2.55;;
64966;SDS011;51710;38.732;-121.358;2023-04-06T08:39:54;5.20;;;2.70;;
64966;SDS011;51710;38.732;-121.358;2023-04-06T08:42:20;5.28;;;2.53;;
64966;SDS011;51710;38.732;-121.358;2023-04-06T08:44:48;8.40;;;2.88;;
64966;SDS011;51710;38.732;-121.358;2023-04-06T08:47:16;6.72;;;3.25;;
64966;SDS011;51710;38.732;-121.358;2023-04-06T08:49:42;7.20;;;2.92;;
64966;SDS011;51710;38.732;-121.358;2023-04-06T08:52:10;7.85;;;2.75;;
64966;SDS011;51710;38.732;-121.358;2023-04-06T08:54:37;6.68;;;3.33;;
64966;SDS011;51710;38.732;-121.358;2023-04-06T08:57:04;4.57;;;2.50;;
64966;SDS011;51710;38.732;-121.358;2023-04-06T08:59:31;5.55;;;2.75;;
64966;SDS011;51710;38.732;-121.358;2023-04-06T09:01:58;7.88;;;2.85;;
64966;SDS011;51710;38.732;-121.358;2023-04-06T09:04:26;6.15;;;2.60;;
64966;SDS011;51710;38.732;-121.358;2023-04-06T09:06:52;6.80;;;3.20;;
64966;SDS011;51710;38.732;-121.358;2023-04-06T09:09:19;8.25;;;2.88;;
64966;SDS011;51710;38.732;-121.358;2023-04-06T09:11:46;7.38;;;2.55;;
64966;SDS011;51710;38.732;-121.358;2023-04-06T09:14:14;5.30;;;2.50;;
64966;SDS011;51710;38.732;-121.358;2023-04-06T09:16:43;6.63;;;2.65;;
64966;SDS011;51710;38.732;-121.358;2023-04-06T09:19:11;4.60;;;2.50;;
64966;SDS011;51710;38.732;-121.358;2023-04-06T09:21:37;4.45;;;2.60;;
64966;SDS011;51710;38.732;-121.358;2023-04-06T09:24:06;6.20;;;2.63;;
64966;SDS011;51710;38.732;-121.358;2023-04-06T09:26:43;6.43;;;3.10;;
64966;SDS011;51710;38.732;-121.358;2023-04-06T09:29:21;6.88;;;2.20;;
64966;SDS011;51710;38.732;-121.358;2023-04-06T09:31:48;5.10;;;2.10;;
64966;SDS011;51710;38.732;-121.358;2023-04-06T09:34:21;5.25;;;2.38;;
64966;SDS011;51710;38.732;-121.358;2023-04-06T09:36:49;4.20;;;2.17;;
64966;SDS011;51710;38.732;-121.358;2023-04-06T09:39:19;5.35;;;2.70;;
64966;SDS011;51710;38.732;-121.358;2023-04-06T09:41:49;6.15;;;2.97;;
64966;SDS011;51710;38.732;-121.358;2023-04-06T09:44:16;4.75;;;2.33;;
64966;SDS011;51710;38.732;-121.358;2023-04-06T09:46:43;6.45;;;2.30;;
64966;SDS011;51710;38.732;-121.358;2023-04-06T09:49:11;7.07;;;2.38;;
64966;SDS011;51710;38.732;-121.358;2023-04-06T09:51:39;6.55;;;2.50;;
64966;SDS011;51710;38.732;-121.358;2023-04-06T09:54:11;4.20;;;2.10;;
64966;SDS011;51710;38.732;-121.358;2023-04-06T09:56:50;3.92;;;1.98;;
64966;SDS011;51710;38.732;-121.358;2023-04-06T10:04:56;5.40;;;1.88;;
64966;SDS011;51710;38.732;-121.358;2023-04-06T10:07:28;5.65;;;2.20;;
64966;SDS011;51710;38.732;-121.358;2023-04-06T10:09:56;5.65;;;2.20;;
64966;SDS011;51710;38.732;-121.358;2023-04-06T10:12:24;3.30;;;1.77;;
64966;SDS011;51710;38.732;-121.358;2023-04-06T10:14:50;6.40;;;1.90;;
64966;SDS011;51710;38.732;-121.358;2023-04-06T10:17:17;6.75;;;1.80;;
64966;SDS011;51710;38.732;-121.358;2023-04-06T10:19:52;4.68;;;2.00;;
64966;SDS011;51710;38.732;-121.358;2023-04-06T10:22:26;5.03;;;2.05;;
64966;SDS011;51710;38.732;-121.358;2023-04-06T10:25:01;3.95;;;2.28;;
64966;SDS011;51710;38.732;-121.358;2023-04-06T10:27:28;6.18;;;2.00;;
64966;SDS011;51710;38.732;-121.358;2023-04-06T10:30:00;4.22;;;1.65;;
64966;SDS011;51710;38.732;-121.358;2023-04-06T10:32:34;4.43;;;1.80;;
64966;SDS011;51710;38.732;-121.358;2023-04-06T10:35:05;4.88;;;1.77;;
64966;SDS011;51710;38.732;-121.358;2023-04-06T10:37:45;4.50;;;1.67;;
64966;SDS011;51710;38.732;-121.358;2023-04-06T10:40:18;5.75;;;1.80;;
64966;SDS011;51710;38.732;-121.358;2023-04-06T10:42:54;4.63;;;2.03;;
64966;SDS011;51710;38.732;-121.358;2023-04-06T10:45:21;5.35;;;2.13;;
64966;SDS011;51710;38.732;-121.358;2023-04-06T10:47:49;6.03;;;1.60;;
64966;SDS011;51710;38.732;-121.358;2023-04-06T10:50:19;2.80;;;1.80;;
64966;SDS011;51710;38.732;-121.358;2023-04-06T10:52:46;8.57;;;1.90;;
64966;SDS011;51710;38.732;-121.358;2023-04-06T10:55:13;3.10;;;1.70;;
64966;SDS011;51710;38.732;-121.358;2023-04-06T10:57:40;3.55;;;1.70;;
64966;SDS011;51710;38.732;-121.358;2023-04-06T11:00:07;3.58;;;1.60;;
64966;SDS011;51710;38.732;-121.358;2023-04-06T11:02:35;3.17;;;1.58;;
64966;SDS011;51710;38.732;-121.358;2023-04-06T11:05:03;2.83;;;1.48;;
64966;SDS011;51710;38.732;-121.358;2023-04-06T11:07:29;3.70;;;1.50;;
64966;SDS011;51710;38.732;-121.358;2023-04-06T11:09:56;5.60;;;1.77;;
64966;SDS011;51710;38.732;-121.358;2023-04-06T11:14:54;4.60;;;1.60;;
64966;SDS011;51710;38.732;-121.358;2023-04-06T11:17:31;3.65;;;1.38;;
64966;SDS011;51710;38.732;-121.358;2023-04-06T11:20:03;4.95;;;1.30;;
64966;SDS011;51710;38.732;-121.358;2023-04-06T11:22:30;6.10;;;1.55;;
64966;SDS011;51710;38.732;-121.358;2023-04-06T11:25:06;4.20;;;1.60;;
64966;SDS011;51710;38.732;-121.358;2023-04-06T11:27:34;5.57;;;1.50;;
64966;SDS011;51710;38.732;-121.358;2023-04-06T11:30:01;7.88;;;1.80;;
64966;SDS011;51710;38.732;-121.358;2023-04-06T11:32:28;3.67;;;1.38;;
64966;SDS011;51710;38.732;-121.358;2023-04-06T11:34:54;3.42;;;1.60;;
64966;SDS011;51710;38.732;-121.358;2023-04-06T11:37:25;4.72;;;1.65;;
64966;SDS011;51710;38.732;-121.358;2023-04-06T11:39:54;3.60;;;1.95;;
64966;SDS011;51710;38.732;-121.358;2023-04-06T11:42:23;4.93;;;1.40;;
64966;SDS011;51710;38.732;-121.358;2023-04-06T11:44:51;7.00;;;1.67;;
64966;SDS011;51710;38.732;-121.358;2023-04-06T11:47:20;3.08;;;1.60;;
64966;SDS011;51710;38.732;-121.358;2023-04-06T11:49:56;4.22;;;2.05;;
64966;SDS011;51710;38.732;-121.358;2023-04-06T11:52:32;7.60;;;1.80;;
64966;SDS011;51710;38.732;-121.358;2023-04-06T11:54:58;6.50;;;1.50;;
64966;SDS011;51710;38.732;-121.358;2023-04-06T11:57:35;5.75;;;1.73;;
64966;SDS011;51710;38.732;-121.358;2023-04-06T12:00:02;2.85;;;1.52;;
64966;SDS011;51710;38.732;-121.358;2023-04-06T12:02:29;6.78;;;2.00;;
64966;SDS011;51710;38.732;-121.358;2023-04-06T12:04:57;2.92;;;1.48;;
64966;SDS011;51710;38.732;-121.358;2023-04-06T12:07:23;4.00;;;1.70;;
64966;SDS011;51710;38.732;-121.358;2023-04-06T12:09:49;3.15;;;1.60;;
64966;SDS011;51710;38.732;-121.358;2023-04-06T12:12:16;3.17;;;1.45;;
64966;SDS011;51710;38.732;-121.358;2023-04-06T12:14:42;4.68;;;2.00;;
64966;SDS011;51710;38.732;-121.358;2023-04-06T12:17:08;3.45;;;1.80;;
64966;SDS011;51710;38.732;-121.358;2023-04-06T12:19:35;4.88;;;1.83;;
64966;SDS011;51710;38.732;-121.358;2023-04-06T12:22:01;7.25;;;1.98;;
64966;SDS011;51710;38.732;-121.358;2023-04-06T12:24:27;3.88;;;1.85;;
64966;SDS011;51710;38.732;-121.358;2023-04-06T12:26:54;4.53;;;1.90;;
64966;SDS011;51710;38.732;-121.358;2023-04-06T12:29:20;3.58;;;1.77;;
64966;SDS011;51710;38.732;-121.358;2023-04-06T12:31:46;6.43;;;2.10;;
64966;SDS011;51710;38.732;-121.358;2023-04-06T12:34:13;6.60;;;2.40;;
64966;SDS011;51710;38.732;-121.358;2023-04-06T12:36:39;4.15;;;1.75;;
64966;SDS011;51710;38.732;-121.358;2023-04-06T12:39:05;3.30;;;1.73;;
64966;SDS011;51710;38.732;-121.358;2023-04-06T12:41:31;6.65;;;2.30;;
64966;SDS011;51710;38.732;-121.358;2023-04-06T12:43:58;5.93;;;1.80;;
64966;SDS011;51710;38.732;-121.358;2023-04-06T12:46:27;8.13;;;2.10;;
64966;SDS011;51710;38.732;-121.358;2023-04-06T12:48:55;6.80;;;2.10;;
64966;SDS011;51710;38.732;-121.358;2023-04-06T12:51:24;4.88;;;2.00;;
64966;SDS011;51710;38.732;-121.358;2023-04-06T12:53:53;4.88;;;2.30;;
64966;SDS011;51710;38.732;-121.358;2023-04-06T12:56:20;6.35;;;2.15;;
64966;SDS011;51710;38.732;-121.358;2023-04-06T12:58:50;6.15;;;2.35;;
64966;SDS011;51710;38.732;-121.358;2023-04-06T13:01:17;4.40;;;2.20;;
64966;SDS011;51710;38.732;-121.358;2023-04-06T13:03:44;5.93;;;3.00;;
64966;SDS011;51710;38.732;-121.358;2023-04-06T13:06:10;4.95;;;2.35;;
64966;SDS011;51710;38.732;-121.358;2023-04-06T13:08:37;4.13;;;2.10;;
64966;SDS011;51710;38.732;-121.358;2023-04-06T13:11:05;4.80;;;2.10;;
64966;SDS011;51710;38.732;-121.358;2023-04-06T13:13:35;4.95;;;2.20;;
64966;SDS011;51710;38.732;-121.358;2023-04-06T13:16:03;5.28;;;2.00;;
64966;SDS011;51710;38.732;-121.358;2023-04-06T13:18:31;5.13;;;2.67;;
64966;SDS011;51710;38.732;-121.358;2023-04-06T13:20:58;5.18;;;2.20;;
64966;SDS011;51710;38.732;-121.358;2023-04-06T13:23:27;5.22;;;2.38;;
64966;SDS011;51710;38.732;-121.358;2023-04-06T13:26:00;6.38;;;2.35;;
64966;SDS011;51710;38.732;-121.358;2023-04-06T13:28:29;5.13;;;2.38;;
64966;SDS011;51710;38.732;-121.358;2023-04-06T13:30:57;6.88;;;2.17;;
64966;SDS011;51710;38.732;-121.358;2023-04-06T13:33:24;5.32;;;2.05;;
64966;SDS011;51710;38.732;-121.358;2023-04-06T13:35:51;7.70;;;2.30;;
64966;SDS011;51710;38.732;-121.358;2023-04-06T13:38:17;7.93;;;2.60;;
64966;SDS011;51710;38.732;-121.358;2023-04-06T13:40:44;6.50;;;2.85;;
64966;SDS011;51710;38.732;-121.358;2023-04-06T13:43:10;6.25;;;2.80;;
64966;SDS011;51710;38.732;-121.358;2023-04-06T13:45:37;3.80;;;2.17;;
64966;SDS011;51710;38.732;-121.358;2023-04-06T13:48:04;6.22;;;2.75;;
64966;SDS011;51710;38.732;-121.358;2023-04-06T13:50:32;4.90;;;2.22;;
64966;SDS011;51710;38.732;-121.358;2023-04-06T13:52:59;5.05;;;2.60;;
64966;SDS011;51710;38.732;-121.358;2023-04-06T13:55:25;7.18;;;2.90;;
64966;SDS011;51710;38.732;-121.358;2023-04-06T13:57:51;8.80;;;2.60;;
64966;SDS011;51710;38.732;-121.358;2023-04-06T14:00:18;6.57;;;2.53;;
64966;SDS011;51710;38.732;-121.358;2023-04-06T14:02:44;8.60;;;3.20;;
64966;SDS011;51710;38.732;-121.358;2023-04-06T14:05:10;7.00;;;2.28;;
64966;SDS011;51710;38.732;-121.358;2023-04-06T14:07:37;6.00;;;2.30;;
64966;SDS011;51710;38.732;-121.358;2023-04-06T14:10:03;5.35;;;2.58;;
64966;SDS011;51710;38.732;-121.358;2023-04-06T14:12:30;5.82;;;2.85;;
64966;SDS011;51710;38.732;-121.358;2023-04-06T14:14:59;6.13;;;2.50;;
64966;SDS011;51710;38.732;-121.358;2023-04-06T14:17:26;9.07;;;2.72;;